createdAt,value
2022-08-19T05:31:00.524Z,45.03
2022-08-19T05:33:28.591Z,35.05
2022-08-19T05:35:57.146Z,38.08
2022-08-19T05:38:24.432Z,34.38
2022-08-19T05:40:51.737Z,31.67
2022-08-19T05:43:19.017Z,31.30
2022-08-19T05:45:46.809Z,33.80
2022-08-19T05:48:15.284Z,32.42
2022-08-19T05:50:43.150Z,40.53
2022-08-19T05:53:10.475Z,32.00
2022-08-19T05:55:39.536Z,34.50
2022-08-19T05:58:08.568Z,38.13
2022-08-19T06:00:37.813Z,42.47
2022-08-19T06:03:09.725Z,30.52
2022-08-19T06:05:46.191Z,33.78
2022-08-19T06:08:19.640Z,30.48
2022-08-19T06:10:48.396Z,29.98
2022-08-19T06:13:15.595Z,31.02
2022-08-19T06:15:45.251Z,29.10
2022-08-19T06:18:13.257Z,33.85
2022-08-19T06:20:55.532Z,36.50
2022-08-19T06:23:24.369Z,43.97
2022-08-19T06:25:51.712Z,35.17
2022-08-19T06:28:19.199Z,38.53
2022-08-19T06:30:46.746Z,28.90
2022-08-19T06:33:13.929Z,30.30
2022-08-19T06:35:42.358Z,30.30
2022-08-19T06:38:10.620Z,31.27
2022-08-19T06:40:39.134Z,27.80
2022-08-19T06:43:08.631Z,30.67
2022-08-19T06:45:39.775Z,34.40
2022-08-19T06:48:07.952Z,33.47
2022-08-19T06:50:35.187Z,25.73
2022-08-19T06:53:06.937Z,29.90
2022-08-19T06:55:34.146Z,28.02
2022-08-19T06:58:04.749Z,29.48
2022-08-19T07:03:07.689Z,27.67
2022-08-19T07:05:45.375Z,25.75
2022-08-19T07:08:14.313Z,29.75
2022-08-19T07:10:46.774Z,32.80
2022-08-19T07:13:13.999Z,26.73
2022-08-19T07:15:41.551Z,29.98
2022-08-19T07:18:11.775Z,25.33
2022-08-19T07:20:41.895Z,28.55
2022-08-19T07:23:15.879Z,27.45
2022-08-19T07:25:52.887Z,29.67
2022-08-19T07:28:24.666Z,24.33
2022-08-19T07:30:52.949Z,24.52
2022-08-19T07:33:20.859Z,33.22
2022-08-19T07:35:48.189Z,27.83
2022-08-19T07:38:17.038Z,34.95
2022-08-19T07:40:47.073Z,27.77
2022-08-19T07:43:17.349Z,28.65
2022-08-19T07:45:48.023Z,26.52
2022-08-19T07:48:15.497Z,28.63
2022-08-19T07:50:42.786Z,28.60
2022-08-19T07:53:10.165Z,28.42
2022-08-19T07:55:41.764Z,29.50
2022-08-19T07:58:11.793Z,31.42
2022-08-19T08:00:39.566Z,26.52
2022-08-19T08:03:06.947Z,22.77
2022-08-19T08:05:54.118Z,35.47
2022-08-19T08:08:44.354Z,27.40
2022-08-19T08:11:20.077Z,29.33
2022-08-19T08:14:01.452Z,26.55
2022-08-19T08:16:39.603Z,20.55
2022-08-19T08:19:14.821Z,26.83
2022-08-19T08:21:49.139Z,23.67
2022-08-19T08:24:16.630Z,25.52
2022-08-19T08:26:46.910Z,19.10
2022-08-19T08:29:20.601Z,21.30
2022-08-19T08:31:48.984Z,21.02
2022-08-19T08:34:27.150Z,18.83
2022-08-19T08:36:54.409Z,22.65
2022-08-19T08:39:22.701Z,22.15
2022-08-19T08:42:18.408Z,20.27
2022-08-19T08:47:37.191Z,19.90
2022-08-19T08:50:13.630Z,20.08
2022-08-19T08:52:46.523Z,24.60
2022-08-19T08:55:20.713Z,21.25
2022-08-19T09:00:31.463Z,18.30
2022-08-19T09:03:01.113Z,18.88
2022-08-19T09:06:05.455Z,17.73
2022-08-19T09:09:11.854Z,20.17
2022-08-19T09:12:08.254Z,15.65
2022-08-19T09:15:02.805Z,22.27
2022-08-19T09:17:32.166Z,18.15
2022-08-19T09:20:10.276Z,23.05
2022-08-19T09:22:39.520Z,15.10
2022-08-19T09:25:08.897Z,13.63
2022-08-19T09:27:42.278Z,23.27
2022-08-19T09:30:15.755Z,17.33
2022-08-19T09:32:44.131Z,17.52
2022-08-19T09:35:13.464Z,17.15
2022-08-19T09:37:41.346Z,13.18
2022-08-19T09:40:12.304Z,16.60
2022-08-19T09:42:39.738Z,17.48
2022-08-19T09:45:22.081Z,14.80
2022-08-19T09:47:51.972Z,13.00
2022-08-19T09:50:23.488Z,18.77
2022-08-19T09:52:54.201Z,11.75
2022-08-19T09:55:31.149Z,14.25
2022-08-19T09:58:01.805Z,14.75
2022-08-19T10:00:29.718Z,12.55
2022-08-19T10:02:56.973Z,10.05
2022-08-19T10:05:44.154Z,12.88
2022-08-19T10:08:13.373Z,12.00
2022-08-19T10:10:46.231Z,11.63
2022-08-19T10:13:17.235Z,11.63
2022-08-19T10:15:47.333Z,7.90
2022-08-19T10:18:17.672Z,10.23
2022-08-19T10:20:46.611Z,9.70
2022-08-19T10:23:21.086Z,8.65
2022-08-19T10:25:50.588Z,9.77
2022-08-19T10:28:19.384Z,10.68
2022-08-19T10:30:47.830Z,10.32
2022-08-19T10:33:19.247Z,10.43
2022-08-19T10:36:07.187Z,10.40
2022-08-19T10:38:38.754Z,12.07
2022-08-19T10:41:10.436Z,9.50
2022-08-19T10:43:39.183Z,8.15
2022-08-19T10:46:13.884Z,8.98
2022-08-19T10:48:42.786Z,10.35
2022-08-19T10:51:31.098Z,11.80
2022-08-19T10:53:59.446Z,14.48
2022-08-19T10:56:48.038Z,11.90
2022-08-19T10:59:16.514Z,9.68
2022-08-19T11:01:45.895Z,7.10
2022-08-19T11:04:14.629Z,11.68
2022-08-19T11:06:44.415Z,10.00
2022-08-19T11:09:12.573Z,7.05
2022-08-19T11:11:41.709Z,9.68
2022-08-19T11:14:14.129Z,6.07
2022-08-19T11:16:43.243Z,7.63
2022-08-19T11:19:12.734Z,10.35
2022-08-19T11:21:42.670Z,6.93
2022-08-19T11:24:13.424Z,7.03
2022-08-19T11:26:42.433Z,6.97
2022-08-19T11:29:12.477Z,8.68
2022-08-19T11:31:42.506Z,6.70
2022-08-19T11:34:14.240Z,12.60
2022-08-19T11:36:43.897Z,5.97
2022-08-19T11:39:13.288Z,5.97
2022-08-19T11:41:41.251Z,7.88
2022-08-19T11:44:09.015Z,9.10
2022-08-19T11:46:38.428Z,10.95
2022-08-19T11:49:13.804Z,9.45
2022-08-19T11:51:44.185Z,8.57
2022-08-19T11:54:13.721Z,7.35
2022-08-19T11:56:41.808Z,8.63
2022-08-19T11:59:14.110Z,11.57
2022-08-19T12:01:43.507Z,8.13
2022-08-19T12:04:11.968Z,6.07
2022-08-19T12:06:42.215Z,6.68
2022-08-19T12:09:11.430Z,9.07
2022-08-19T12:11:40.302Z,10.75
2022-08-19T12:14:14.670Z,15.73
2022-08-19T12:16:49.079Z,8.55
2022-08-19T12:19:21.870Z,9.38
2022-08-19T12:21:50.878Z,9.88
2022-08-19T12:24:24.032Z,8.23
2022-08-19T12:26:53.700Z,8.05
2022-08-19T12:29:23.902Z,7.63
2022-08-19T12:31:52.832Z,7.63
2022-08-19T12:34:21.081Z,6.45
2022-08-19T12:36:50.204Z,7.13
2022-08-19T12:39:17.573Z,6.03
2022-08-19T12:41:54.059Z,6.28
2022-08-19T12:44:29.216Z,5.13
2022-08-19T12:46:58.205Z,13.38
2022-08-19T12:49:54.022Z,6.28
2022-08-19T12:52:22.891Z,11.43
2022-08-19T12:54:54.383Z,8.75
2022-08-19T12:57:32.254Z,10.65
2022-08-19T13:00:05.819Z,13.00
2022-08-19T13:02:38.124Z,10.90
2022-08-19T13:05:09.492Z,7.47
2022-08-19T13:07:38.377Z,7.30
2022-08-19T13:10:08.254Z,6.75
2022-08-19T13:12:36.254Z,14.20
2022-08-19T13:15:10.662Z,10.48
2022-08-19T13:17:40.172Z,10.10
2022-08-19T13:20:09.688Z,8.07
2022-08-19T13:22:37.525Z,20.58
2022-08-19T13:25:07.059Z,12.70
2022-08-19T13:27:34.306Z,7.03
2022-08-19T13:30:22.035Z,12.00
2022-08-19T13:33:09.181Z,9.40
2022-08-19T13:35:36.465Z,18.25
2022-08-19T13:38:05.808Z,11.05
2022-08-19T13:40:41.359Z,10.15
2022-08-19T13:43:17.614Z,7.35
2022-08-19T13:45:54.781Z,6.63
2022-08-19T13:48:22.534Z,8.75
2022-08-19T13:50:49.808Z,8.13
2022-08-19T13:53:18.204Z,7.75
2022-08-19T13:55:45.828Z,6.38
2022-08-19T13:58:13.351Z,6.22
2022-08-19T14:00:45.344Z,10.30
2022-08-19T14:03:12.853Z,7.60
2022-08-19T14:05:40.309Z,7.20
2022-08-19T14:08:07.857Z,7.65
2022-08-19T14:10:35.653Z,11.82
2022-08-19T14:13:04.734Z,7.05
2022-08-19T14:15:32.407Z,12.35
2022-08-19T14:18:00.318Z,7.07
2022-08-19T14:20:27.781Z,9.65
2022-08-19T14:22:56.447Z,7.90
2022-08-19T14:25:27.112Z,8.48
2022-08-19T14:27:54.761Z,7.82
2022-08-19T14:30:28.504Z,7.43
2022-08-19T14:32:56.993Z,7.03
2022-08-19T14:35:24.693Z,6.35
2022-08-19T14:37:56.000Z,7.10
2022-08-19T14:40:27.575Z,10.70
2022-08-19T14:43:00.311Z,9.18
2022-08-19T14:45:29.915Z,7.93
2022-08-19T14:47:57.358Z,7.60
2022-08-19T14:50:24.680Z,11.75
2022-08-19T14:52:59.748Z,7.28
2022-08-19T14:55:27.586Z,5.70
2022-08-19T14:57:54.967Z,14.10
2022-08-19T15:00:26.035Z,8.15
2022-08-19T15:02:55.501Z,8.35
2022-08-19T15:05:22.876Z,9.15
2022-08-19T15:07:50.296Z,6.97
2022-08-19T15:10:17.699Z,5.88
2022-08-19T15:12:48.595Z,5.10
2022-08-19T15:15:18.914Z,6.45
2022-08-19T15:17:47.350Z,7.18
2022-08-19T15:20:19.225Z,5.82
2022-08-19T15:22:46.693Z,6.27
2022-08-19T15:25:17.518Z,11.23
2022-08-19T15:27:45.076Z,6.57
2022-08-19T15:30:13.391Z,6.55
2022-08-19T15:32:40.771Z,8.98
2022-08-19T15:35:09.076Z,7.45
2022-08-19T15:37:37.442Z,5.15
2022-08-19T15:40:08.982Z,5.05
2022-08-19T15:42:38.429Z,4.90
2022-08-19T15:45:07.607Z,6.70
2022-08-19T15:47:35.749Z,6.50
2022-08-19T15:50:14.308Z,9.05
2022-08-19T15:53:07.233Z,6.85
2022-08-19T15:55:37.997Z,8.63
2022-08-19T15:58:29.906Z,6.25
